Time;durP1;ratioP1;P1;durP2;ratioP2;P2;SDS_P1;SDS_P2;PMS_P1;PMS_P2;Temp;Humidity;BMP_temperature;BMP_pressure;BME280_temperature;BME280_humidity;BME280_pressure;Samples;Min_cycle;Max_cycle;Signal;HPM_P1;HPM_P2
2021/01/09 00:00:47;;;;;;;12.07;10.63;;;;;;;-1.91;84.61;95620.75;5060663;28;20561;-73
2021/01/09 00:03:14;;;;;;;14.63;11.17;;;;;;;-1.93;84.53;95616.59;5064157;28;20479;-73
2021/01/09 00:05:40;;;;;;;13.63;11.97;;;;;;;-1.92;84.44;95623.41;5078572;28;20510;-73
2021/01/09 00:08:08;;;;;;;13.27;10.43;;;;;;;-1.92;84.41;95620.81;5084130;28;20466;-73
2021/01/09 00:10:34;;;;;;;14.80;10.37;;;;;;;-1.94;84.50;95620.13;5071610;28;20540;-73
2021/01/09 00:13:02;;;;;;;11.83;9.30;;;;;;;-1.96;84.70;95627.16;5083437;28;20460;-73
2021/01/09 00:15:30;;;;;;;15.07;10.07;;;;;;;-1.92;84.56;95623.41;5071190;28;20476;-73
2021/01/09 00:17:57;;;;;;;11.37;10.07;;;;;;;-1.82;83.85;95629.63;5072097;28;23056;-73
2021/01/09 00:20:24;;;;;;;11.63;9.77;;;;;;;-1.83;83.46;95617.59;5076582;28;20467;-73
2021/01/09 00:22:50;;;;;;;13.00;9.97;;;;;;;-1.83;83.45;95620.16;5081413;28;20503;-73
2021/01/09 00:25:18;;;;;;;12.47;11.00;;;;;;;-1.90;83.29;95622.41;5077930;28;20926;-73
2021/01/09 00:27:45;;;;;;;12.37;11.07;;;;;;;-1.91;83.70;95623.34;5081656;28;20464;-73
2021/01/09 00:30:13;;;;;;;15.43;10.93;;;;;;;-1.90;84.01;95622.41;5056614;28;20468;-73
2021/01/09 00:32:40;;;;;;;13.10;11.87;;;;;;;-1.83;83.45;95620.16;5083837;28;20468;-73
2021/01/09 00:35:08;;;;;;;13.27;10.30;;;;;;;-1.89;83.72;95618.88;5079838;28;20976;-73
2021/01/09 00:37:35;;;;;;;13.20;11.13;;;;;;;-1.95;83.47;95619.28;5084276;28;20468;-73
2021/01/09 00:40:03;;;;;;;13.00;10.10;;;;;;;-1.89;83.40;95624.03;5078637;28;20459;-73
2021/01/09 00:42:30;;;;;;;16.47;12.53;;;;;;;-1.94;83.57;95620.13;5082799;28;20976;-73
2021/01/09 00:44:57;;;;;;;10.93;9.80;;;;;;;-1.96;83.67;95622.81;5080915;28;20456;-73
2021/01/09 00:47:24;;;;;;;14.97;11.33;;;;;;;-2.09;84.02;95622.03;5086324;28;20483;-73
2021/01/09 00:49:52;;;;;;;13.60;9.30;;;;;;;-2.06;83.95;95627.81;5074174;28;20562;-74
2021/01/09 00:52:18;;;;;;;9.60;8.60;;;;;;;-2.11;84.07;95626.47;5084799;28;20471;-74
2021/01/09 00:54:45;;;;;;;12.57;9.67;;;;;;;-2.12;84.15;95628.22;5084150;28;20838;-74
2021/01/09 00:57:12;;;;;;;10.60;8.80;;;;;;;-2.16;84.10;95628.56;5086458;28;20484;-74
2021/01/09 00:59:39;;;;;;;11.33;9.87;;;;;;;-2.11;84.19;95619.53;5079610;28;20471;-74
2021/01/09 01:02:06;;;;;;;15.00;11.00;;;;;;;-2.06;83.89;95614.88;5079569;28;20463;-74
2021/01/09 01:04:33;;;;;;;12.07;10.87;;;;;;;-2.01;83.63;95628.31;5081765;28;20484;-74
2021/01/09 01:07:00;;;;;;;11.97;10.23;;;;;;;-1.99;83.59;95623.03;5084046;28;20546;-73
2021/01/09 01:09:27;;;;;;;11.57;9.77;;;;;;;-1.98;83.56;95629.03;5084327;28;20521;-74
2021/01/09 01:11:54;;;;;;;13.87;10.40;;;;;;;-2.12;83.47;95628.22;5084676;28;20868;-74
2021/01/09 01:14:21;;;;;;;10.33;9.17;;;;;;;-2.01;83.56;95633.50;5082055;28;20518;-74
2021/01/09 01:16:50;;;;;;;12.40;10.43;;;;;;;-2.16;83.81;95631.97;5083376;28;20496;-74
2021/01/09 01:19:17;;;;;;;11.13;9.43;;;;;;;-2.21;84.01;95638.38;5086395;28;20471;-74
2021/01/09 01:21:44;;;;;;;14.57;10.30;;;;;;;-2.27;84.32;95631.91;5063626;28;20488;-73
2021/01/09 01:24:11;;;;;;;10.20;8.83;;;;;;;-2.28;84.78;95625.09;5080056;28;20464;-74
2021/01/09 01:26:39;;;;;;;14.80;10.03;;;;;;;-2.29;85.07;95620.81;5084298;28;21239;-74
2021/01/09 01:29:05;;;;;;;12.60;11.27;;;;;;;-2.22;84.71;95627.22;5084893;28;20464;-73
2021/01/09 01:31:32;;;;;;;11.80;10.50;;;;;;;-2.21;84.70;95631.47;5079279;28;20510;-74
2021/01/09 01:33:59;;;;;;;13.60;12.20;;;;;;;-2.10;84.30;95622.97;5083105;28;20583;-74
2021/01/09 01:36:27;;;;;;;13.30;9.80;;;;;;;-2.17;84.15;95634.69;5074526;28;20473;-74
2021/01/09 01:38:53;;;;;;;12.33;9.70;;;;;;;-2.17;83.88;95635.50;5082354;28;20537;-74
2021/01/09 01:41:21;;;;;;;14.23;11.57;;;;;;;-2.22;84.07;95640.16;5080165;28;21130;-74
2021/01/09 01:43:48;;;;;;;11.83;9.57;;;;;;;-2.22;84.58;95637.56;5062250;28;20480;-74
2021/01/09 01:46:16;;;;;;;12.30;11.10;;;;;;;-2.23;84.52;95635.91;5078965;28;20464;-74
2021/01/09 01:48:45;;;;;;;13.67;10.70;;;;;;;-2.18;84.34;95628.69;5083986;28;20475;-74
2021/01/09 01:51:13;;;;;;;11.63;10.47;;;;;;;-2.23;84.37;95630.75;5075898;28;20507;-74
2021/01/09 01:53:40;;;;;;;26.00;10.13;;;;;;;-2.12;83.81;95633.41;5083070;28;20527;-74
2021/01/09 01:56:08;;;;;;;12.17;10.93;;;;;;;-2.25;83.97;95637.78;5078860;28;20984;-74
2021/01/09 01:58:35;;;;;;;10.50;8.77;;;;;;;-2.21;83.96;95634.03;5078025;28;20472;-73
2021/01/09 02:01:03;;;;;;;14.37;11.53;;;;;;;-2.24;83.94;95639.44;5083232;28;20460;-74
2021/01/09 02:03:30;;;;;;;14.17;9.73;;;;;;;-2.21;84.17;95636.63;5078282;28;21193;-76
2021/01/09 02:06:06;;;;;;;15.00;10.50;;;;;;;-2.20;83.84;95646.03;5079075;28;20887;-76
2021/01/09 02:08:38;;;;;;;16.40;13.47;;;;;;;-2.15;83.82;95638.81;5079383;28;20846;-77
2021/01/09 02:11:12;;;;;;;12.97;10.03;;;;;;;-2.10;83.32;95647.06;5078373;28;20458;-76
2021/01/09 02:13:44;;;;;;;9.47;8.50;;;;;;;-2.18;83.61;95643.38;5074031;28;20463;-76
2021/01/09 02:16:11;;;;;;;13.43;11.87;;;;;;;-2.22;83.89;95647.09;5065242;28;20468;-76
2021/01/09 02:18:41;;;;;;;13.53;8.73;;;;;;;-2.18;83.71;95640.78;5082772;28;20464;-74
2021/01/09 02:21:21;;;;;;;14.13;10.37;;;;;;;-2.07;83.35;95641.69;5079780;28;20468;-75
2021/01/09 02:23:49;;;;;;;15.00;12.20;;;;;;;-2.08;83.18;95637.44;5075697;28;20530;-76
2021/01/09 02:26:16;;;;;;;9.63;8.70;;;;;;;-2.10;83.05;95636.72;5074068;28;21053;-76
2021/01/09 02:28:43;;;;;;;10.60;9.47;;;;;;;-2.18;83.23;95648.53;5067975;28;20521;-76
2021/01/09 02:31:11;;;;;;;13.77;11.07;;;;;;;-2.24;83.57;95639.44;5081367;28;20526;-75
2021/01/09 02:33:41;;;;;;;11.73;10.70;;;;;;;-2.22;83.26;95645.31;5081863;28;20464;-74
2021/01/09 02:36:08;;;;;;;11.03;9.47;;;;;;;-2.32;83.15;95645.13;5079007;28;20467;-76
2021/01/09 02:38:36;;;;;;;16.27;11.13;;;;;;;-2.42;83.65;95646.69;5081939;28;20480;-76
2021/01/09 02:41:04;;;;;;;10.60;7.87;;;;;;;-2.40;84.20;95644.00;5077651;28;20495;-76
2021/01/09 02:43:31;;;;;;;11.00;9.87;;;;;;;-2.41;83.86;95647.53;5076905;28;20494;-76
2021/01/09 02:45:59;;;;;;;9.20;8.10;;;;;;;-2.44;83.55;95648.56;5085575;28;20531;-76
2021/01/09 02:48:26;;;;;;;12.43;11.17;;;;;;;-2.43;83.89;95645.06;5065135;28;20472;-76
2021/01/09 02:50:53;;;;;;;14.00;10.77;;;;;;;-2.40;83.59;95654.34;5082619;28;20492;-76
2021/01/09 02:53:19;;;;;;;10.03;9.00;;;;;;;-2.47;83.19;95646.22;5082606;28;20472;-76
2021/01/09 02:55:46;;;;;;;14.40;10.43;;;;;;;-2.45;83.59;95649.50;5084027;28;20468;-76
2021/01/09 02:58:14;;;;;;;10.40;8.50;;;;;;;-2.52;83.91;95650.03;5078258;28;20468;-76
2021/01/09 03:00:41;;;;;;;11.53;8.77;;;;;;;-2.39;83.61;95650.81;5072130;28;20465;-76
2021/01/09 03:03:07;;;;;;;11.03;8.67;;;;;;;-2.50;83.57;95643.00;5083853;28;20544;-76
2021/01/09 03:05:34;;;;;;;10.37;8.63;;;;;;;-2.54;84.00;95657.06;5075737;28;20902;-76
2021/01/09 03:08:03;;;;;;;10.27;9.27;;;;;;;-2.50;83.49;95650.75;5081648;28;20464;-76
2021/01/09 03:10:30;;;;;;;9.90;8.87;;;;;;;-2.48;83.26;95654.03;5079551;28;21235;-76
2021/01/09 03:12:57;;;;;;;9.87;8.40;;;;;;;-2.55;82.98;95650.25;5075715;28;20457;-76
2021/01/09 03:15:25;;;;;;;13.67;10.20;;;;;;;-2.53;83.07;95650.97;5081526;28;20542;-76
2021/01/09 03:17:52;;;;;;;9.90;7.97;;;;;;;-2.47;82.90;95653.97;5068976;28;20476;-76
2021/01/09 03:20:19;;;;;;;8.13;6.53;;;;;;;-2.45;82.55;95659.00;5065472;28;21066;-76
2021/01/09 03:22:46;;;;;;;8.77;7.63;;;;;;;-2.48;81.81;95656.63;5065610;28;20936;-76
2021/01/09 03:25:13;;;;;;;10.03;9.00;;;;;;;-2.57;82.52;95653.72;5061040;28;20469;-76
2021/01/09 03:27:40;;;;;;;10.30;8.87;;;;;;;-2.66;82.67;95659.53;5070290;28;20470;-73
2021/01/09 03:30:08;;;;;;;10.43;8.07;;;;;;;-2.76;83.34;95658.50;5085461;28;20463;-76
2021/01/09 03:32:35;;;;;;;7.73;6.83;;;;;;;-2.82;83.57;95664.09;5080017;28;20461;-75
2021/01/09 03:35:03;;;;;;;8.03;6.37;;;;;;;-2.88;84.18;95657.56;5061604;28;20464;-76
2021/01/09 03:37:30;;;;;;;11.30;8.03;;;;;;;-2.83;83.65;95667.59;5078838;28;20471;-76
2021/01/09 03:39:57;;;;;;;10.87;9.07;;;;;;;-2.90;83.93;95662.00;5073473;28;20537;-76
2021/01/09 03:42:24;;;;;;;12.73;7.97;;;;;;;-2.94;83.89;95659.72;5074629;28;20476;-76
2021/01/09 03:44:50;;;;;;;8.40;6.90;;;;;;;-2.99;84.99;95666.94;5068303;28;20523;-76
2021/01/09 03:47:17;;;;;;;10.20;8.87;;;;;;;-2.95;85.43;95663.22;5082889;28;20541;-76
2021/01/09 03:49:45;;;;;;;12.73;9.33;;;;;;;-2.91;85.23;95662.13;5069975;28;20477;-76
2021/01/09 03:52:12;;;;;;;10.90;9.80;;;;;;;-2.88;84.70;95662.72;5059825;28;20552;-75
2021/01/09 03:54:39;;;;;;;8.17;7.40;;;;;;;-2.91;84.81;95664.69;5064713;28;20522;-76
2021/01/09 03:57:05;;;;;;;11.50;7.97;;;;;;;-2.83;84.38;95665.00;5066618;28;20969;-76
2021/01/09 03:59:32;;;;;;;10.97;8.87;;;;;;;-2.90;84.64;95651.69;5070822;28;20460;-76
2021/01/09 04:02:00;;;;;;;12.17;8.97;;;;;;;-2.92;85.04;95657.88;5063650;28;20465;-76
2021/01/09 04:04:28;;;;;;;10.67;8.90;;;;;;;-2.95;85.02;95660.66;5065748;28;20476;-76
2021/01/09 04:06:55;;;;;;;9.77;8.77;;;;;;;-2.95;85.86;95666.63;5074675;28;20531;-76
2021/01/09 04:09:22;;;;;;;11.77;9.13;;;;;;;-2.98;85.84;95663.44;5069475;28;21199;-76
2021/01/09 04:11:49;;;;;;;11.27;9.23;;;;;;;-2.90;86.34;95661.19;5088512;28;20517;-75
2021/01/09 04:14:16;;;;;;;11.57;10.03;;;;;;;-2.89;86.41;95666.25;5083257;28;20470;-76
2021/01/09 04:16:43;;;;;;;8.53;7.73;;;;;;;-2.87;85.79;95661.78;5088297;28;20455;-76
2021/01/09 04:19:10;;;;;;;9.23;8.30;;;;;;;-2.85;85.50;95659.09;5085805;28;20865;-75
2021/01/09 04:21:43;;;;;;;10.90;8.47;;;;;;;-2.91;85.41;95662.13;5083252;28;20459;-76
2021/01/09 04:24:11;;;;;;;10.30;8.47;;;;;;;-2.88;84.95;95659.31;5065841;28;20544;-76
2021/01/09 04:26:38;;;;;;;12.70;9.13;;;;;;;-2.93;85.36;95656.19;5077808;28;20495;-75
2021/01/09 04:29:06;;;;;;;10.00;8.07;;;;;;;-2.90;85.61;95656.03;5070771;28;20468;-76
2021/01/09 04:31:32;;;;;;;10.73;8.90;;;;;;;-2.79;85.56;95658.69;5069430;28;20469;-76
2021/01/09 04:33:59;;;;;;;9.23;8.27;;;;;;;-2.71;85.05;95656.44;5065563;28;20488;-76
2021/01/09 04:36:27;;;;;;;10.67;9.07;;;;;;;-2.67;84.75;95657.88;5075813;28;20468;-76
2021/01/09 04:38:54;;;;;;;12.37;9.63;;;;;;;-2.73;84.93;95653.13;5069123;28;21036;-75
2021/01/09 04:41:22;;;;;;;14.43;9.77;;;;;;;-2.76;85.24;95658.50;5073317;28;20517;-75
2021/01/09 04:43:49;;;;;;;13.33;10.83;;;;;;;-2.72;85.50;95654.78;5086797;28;20536;-76
2021/01/09 04:46:17;;;;;;;13.43;10.43;;;;;;;-2.71;86.17;95671.94;5064643;28;20981;-76
2021/01/09 04:48:44;;;;;;;10.57;9.00;;;;;;;-2.68;85.86;95660.56;5087427;28;20470;-76
2021/01/09 04:51:11;;;;;;;10.10;8.63;;;;;;;-2.66;85.91;95664.69;5085347;28;20488;-76
2021/01/09 04:53:41;;;;;;;11.80;10.30;;;;;;;-2.60;85.55;95664.28;5085371;28;20448;-76
2021/01/09 04:56:09;;;;;;;12.97;10.73;;;;;;;-2.64;85.17;95656.84;5071057;28;20460;-76
2021/01/09 04:58:38;;;;;;;14.37;11.13;;;;;;;-2.65;85.64;95666.38;5082859;28;20486;-76
2021/01/09 05:01:06;;;;;;;12.47;9.90;;;;;;;-2.64;85.27;95664.59;5072992;28;20462;-76
2021/01/09 05:03:34;;;;;;;10.17;8.93;;;;;;;-2.67;85.13;95673.38;5088170;28;20545;-76
2021/01/09 05:06:01;;;;;;;13.97;9.87;;;;;;;-2.66;85.91;95675.00;5085220;28;20476;-76
2021/01/09 05:08:28;;;;;;;12.07;9.60;;;;;;;-2.69;86.08;95671.81;5085933;28;20467;-76
2021/01/09 05:10:55;;;;;;;10.83;9.57;;;;;;;-2.65;86.35;95687.03;5082064;28;21054;-76
2021/01/09 05:13:23;;;;;;;13.50;10.47;;;;;;;-2.67;86.48;95673.38;5084478;28;20463;-75
2021/01/09 05:15:55;;;;;;;10.03;9.13;;;;;;;-2.67;86.26;95678.53;5078516;28;21115;-75
2021/01/09 05:18:21;;;;;;;11.43;8.73;;;;;;;-2.72;86.15;95683.19;5083830;28;20492;-76
2021/01/09 05:20:48;;;;;;;8.73;7.90;;;;;;;-2.72;86.64;95685.78;5086811;28;20464;-76
2021/01/09 05:23:16;;;;;;;11.47;10.33;;;;;;;-2.77;86.27;95687.81;5075985;28;20476;-76
2021/01/09 05:25:45;;;;;;;10.23;9.00;;;;;;;-2.79;86.36;95679.38;5074197;28;20468;-76
2021/01/09 05:28:11;;;;;;;9.47;8.40;;;;;;;-2.76;86.64;95692.06;5085928;28;20488;-76
2021/01/09 05:30:41;;;;;;;13.90;9.30;;;;;;;-2.79;86.31;95687.09;5085521;28;21108;-76
2021/01/09 05:33:09;;;;;;;11.93;10.73;;;;;;;-2.79;86.11;95689.69;5077780;28;20464;-76
2021/01/09 05:35:38;;;;;;;9.67;8.77;;;;;;;-2.77;85.94;95693.00;5085214;28;20460;-76
2021/01/09 05:38:05;;;;;;;11.03;10.00;;;;;;;-2.82;86.01;95689.06;5070396;28;20464;-76
2021/01/09 05:40:37;;;;;;;9.70;8.70;;;;;;;-2.82;86.22;95699.41;5086624;28;20946;-76
2021/01/09 05:43:09;;;;;;;10.40;9.30;;;;;;;-2.83;86.60;95698.59;5067218;28;20866;-76
2021/01/09 05:45:38;;;;;;;11.17;8.43;;;;;;;-2.83;86.45;95697.72;5079693;28;20830;-76
2021/01/09 05:48:07;;;;;;;11.10;7.77;;;;;;;-2.82;86.42;95696.81;5078552;28;20492;-76
2021/01/09 05:50:41;;;;;;;12.40;7.80;;;;;;;-2.74;86.88;95702.28;5082264;28;20471;-75
2021/01/09 05:53:08;;;;;;;12.80;9.67;;;;;;;-2.62;86.23;95701.47;5083759;28;20470;-75
2021/01/09 05:55:40;;;;;;;10.90;9.27;;;;;;;-2.62;85.75;95704.91;5084015;28;20460;-76
2021/01/09 05:58:08;;;;;;;10.37;8.93;;;;;;;-2.61;85.80;95701.38;5086021;28;20459;-75
2021/01/09 06:00:38;;;;;;;11.23;10.20;;;;;;;-2.60;85.47;95705.63;5065586;28;20475;-75
2021/01/09 06:03:15;;;;;;;13.33;10.33;;;;;;;-2.58;85.39;95708.91;5079307;28;20482;-76
2021/01/09 06:05:47;;;;;;;13.57;10.53;;;;;;;-2.59;85.47;95707.25;5083240;28;20455;-75
2021/01/09 06:08:18;;;;;;;13.37;8.77;;;;;;;-2.63;85.45;95705.00;5066704;28;20473;-75
2021/01/09 06:10:47;;;;;;;13.00;11.67;;;;;;;-2.62;85.69;95706.66;5080617;28;20464;-76
2021/01/09 06:13:19;;;;;;;13.60;9.40;;;;;;;-2.63;85.84;95703.25;5082826;28;20469;-75
2021/01/09 06:15:48;;;;;;;10.93;9.80;;;;;;;-2.62;85.92;95706.66;5072340;28;20521;-76
2021/01/09 06:18:16;;;;;;;9.27;8.37;;;;;;;-2.59;86.14;95712.44;5085398;28;20495;-75
2021/01/09 06:20:45;;;;;;;9.93;8.93;;;;;;;-2.57;86.09;95705.41;5068648;28;20832;-76
2021/01/09 06:23:13;;;;;;;12.90;8.70;;;;;;;-2.50;84.21;95705.00;5055871;28;20472;-76
2021/01/09 06:25:41;;;;;;;11.10;9.97;;;;;;;-2.50;83.45;95705.00;5087138;28;20550;-76
2021/01/09 06:28:13;;;;;;;13.20;9.33;;;;;;;-2.57;83.04;95704.56;5064228;28;20453;-75
2021/01/09 06:30:41;;;;;;;10.33;9.30;;;;;;;-2.58;83.09;95708.91;5084321;28;21028;-75
2021/01/09 06:33:15;;;;;;;10.33;9.00;;;;;;;-2.60;83.18;95715.94;5084329;28;20539;-75
2021/01/09 06:35:44;;;;;;;10.77;8.93;;;;;;;-2.59;83.06;95712.44;5076736;28;20476;-75
2021/01/09 06:38:12;;;;;;;10.27;9.03;;;;;;;-2.60;83.05;95715.94;5063914;28;20464;-75
2021/01/09 06:40:39;;;;;;;11.73;9.40;;;;;;;-2.61;82.90;95709.13;5079020;28;20468;-76
2021/01/09 06:43:08;;;;;;;9.20;8.17;;;;;;;-2.66;83.22;95713.75;5083136;28;20475;-76
2021/01/09 06:45:41;;;;;;;10.77;9.53;;;;;;;-2.67;82.95;95713.88;5064386;28;20459;-71
2021/01/09 06:48:10;;;;;;;8.50;7.77;;;;;;;-2.70;83.02;95714.91;5065759;28;20457;-71
2021/01/09 06:50:38;;;;;;;10.13;9.13;;;;;;;-2.69;82.85;95724.31;5065147;28;20449;-71
2021/01/09 06:53:12;;;;;;;9.50;8.50;;;;;;;-2.66;82.81;95718.94;5081243;28;20452;-71
2021/01/09 06:55:58;;;;;;;9.10;8.30;;;;;;;-2.71;82.57;95717.59;5082063;28;20501;-71
2021/01/09 06:58:29;;;;;;;9.33;7.97;;;;;;;-2.72;82.88;95721.94;5066840;28;20514;-71
2021/01/09 07:01:21;;;;;;;12.00;10.73;;;;;;;-2.68;81.97;95723.38;5075363;28;20475;-71
2021/01/09 07:03:48;;;;;;;8.80;7.50;;;;;;;-2.62;80.73;95724.72;5082582;28;20469;-72
2021/01/09 07:06:15;;;;;;;9.40;8.40;;;;;;;-2.63;79.88;95726.50;5076582;28;20459;-72
2021/01/09 07:08:46;;;;;;;9.20;8.30;;;;;;;-2.69;79.67;95734.63;5080086;28;20472;-71
2021/01/09 07:11:15;;;;;;;8.67;7.27;;;;;;;-2.72;79.48;95734.84;5078470;28;21045;-71
2021/01/09 07:13:43;;;;;;;9.40;8.47;;;;;;;-2.85;79.63;95733.97;5069881;28;20564;-71
2021/01/09 07:16:11;;;;;;;10.20;9.03;;;;;;;-2.81;80.65;95737.22;5079225;28;20502;-71
2021/01/09 07:18:40;;;;;;;8.47;7.83;;;;;;;-2.91;80.43;95739.56;5066048;28;20549;-71
2021/01/09 07:21:08;;;;;;;8.27;7.47;;;;;;;-2.96;80.50;95739.03;5080403;28;20466;-71
2021/01/09 07:23:35;;;;;;;10.40;9.40;;;;;;;-3.01;80.68;95743.69;5078683;28;20492;-70
2021/01/09 07:26:04;;;;;;;9.03;7.90;;;;;;;-3.06;80.17;95740.56;5079354;28;20472;-71
2021/01/09 07:28:36;;;;;;;7.57;6.87;;;;;;;-3.00;80.05;95747.91;5075240;28;20469;-71
2021/01/09 07:31:08;;;;;;;9.50;6.43;;;;;;;-2.98;79.34;95751.22;5074751;28;20915;-71
2021/01/09 07:33:38;;;;;;;12.30;8.27;;;;;;;-3.02;79.21;95749.75;5064742;28;20473;-71
2021/01/09 07:36:06;;;;;;;11.47;8.97;;;;;;;-2.99;79.26;95754.72;5065763;28;20458;-71
2021/01/09 07:38:33;;;;;;;12.03;8.60;;;;;;;-2.97;78.51;95758.03;5074900;28;20821;-71
2021/01/09 07:41:01;;;;;;;12.13;8.33;;;;;;;-3.00;78.17;95763.41;5082105;28;20480;-71
2021/01/09 07:43:37;;;;;;;9.77;7.47;;;;;;;-3.03;78.74;95769.56;5080042;28;20512;-71
2021/01/09 07:46:22;;;;;;;7.80;7.00;;;;;;;-2.93;78.87;95770.63;5086633;28;20502;-71
2021/01/09 07:48:50;;;;;;;7.63;6.80;;;;;;;-2.87;78.30;95774.56;5076145;28;20459;-70
2021/01/09 07:51:18;;;;;;;8.67;7.00;;;;;;;-2.97;78.17;95778.69;5076199;28;21004;-71
2021/01/09 07:53:46;;;;;;;9.50;8.50;;;;;;;-2.99;77.91;95775.38;5085256;28;20487;-71
2021/01/09 07:56:36;;;;;;;8.97;8.03;;;;;;;-2.92;78.22;95774.06;5086609;28;21089;-71
2021/01/09 07:59:05;;;;;;;9.17;6.63;;;;;;;-2.95;77.98;95782.00;5072462;28;20466;-71
2021/01/09 08:01:41;;;;;;;8.30;6.27;;;;;;;-2.99;78.76;95785.72;5083874;28;20513;-71
2021/01/09 08:04:10;;;;;;;6.07;5.43;;;;;;;-2.97;78.80;95783.84;5087070;28;20528;-71
2021/01/09 08:06:37;;;;;;;10.20;5.27;;;;;;;-2.82;77.80;95788.03;5078763;28;21008;-71
2021/01/09 08:09:04;;;;;;;5.43;5.03;;;;;;;-2.85;77.20;95793.38;5070121;28;21067;-71
2021/01/09 08:11:31;;;;;;;7.10;6.40;;;;;;;-2.79;77.44;95793.00;5085225;28;20469;-71
2021/01/09 08:14:03;;;;;;;7.20;5.43;;;;;;;-2.76;77.09;95791.94;5083845;28;20915;-71
2021/01/09 08:16:31;;;;;;;5.80;4.53;;;;;;;-2.76;76.31;95797.94;5068464;28;20464;-71
2021/01/09 08:19:14;;;;;;;7.30;5.73;;;;;;;-2.83;76.15;95801.88;5077571;28;20483;-71
2021/01/09 08:21:41;;;;;;;6.27;5.70;;;;;;;-2.90;76.63;95795.44;5085691;28;20452;-71
2021/01/09 08:24:09;;;;;;;12.03;7.43;;;;;;;-2.87;77.54;95790.91;5085780;28;20466;-71
2021/01/09 08:26:37;;;;;;;5.93;5.27;;;;;;;-2.84;76.97;95799.38;5082255;28;21181;-71
2021/01/09 08:29:04;;;;;;;10.33;5.13;;;;;;;-2.78;77.04;95799.81;5070604;28;20518;-71
2021/01/09 08:31:36;;;;;;;6.23;4.93;;;;;;;-2.78;76.87;95799.81;5074839;28;20544;-71
2021/01/09 08:34:03;;;;;;;6.83;6.20;;;;;;;-2.76;76.88;95797.94;5086713;28;21002;-71
2021/01/09 08:36:30;;;;;;;8.27;6.53;;;;;;;-2.70;76.08;95802.72;5053339;28;21167;-71
2021/01/09 08:38:59;;;;;;;7.40;6.70;;;;;;;-2.68;76.48;95800.84;5081249;28;20479;-71
2021/01/09 08:41:35;;;;;;;4.90;4.50;;;;;;;-2.71;77.21;95806.22;5082304;28;20458;-71
2021/01/09 08:44:07;;;;;;;5.77;4.80;;;;;;;-2.72;76.92;95804.59;5064590;28;20456;-71
2021/01/09 08:46:36;;;;;;;5.23;4.73;;;;;;;-2.65;78.18;95807.56;5069174;28;20484;-71
2021/01/09 08:49:04;;;;;;;6.50;5.90;;;;;;;-2.49;76.65;95815.16;5078924;28;20455;-71
2021/01/09 08:51:34;;;;;;;5.83;4.97;;;;;;;-2.38;75.81;95810.09;5075334;28;21000;-71
2021/01/09 08:54:03;;;;;;;5.53;5.00;;;;;;;-2.34;76.50;95814.16;5079642;28;20484;-71
2021/01/09 08:56:32;;;;;;;7.17;6.43;;;;;;;-2.33;76.43;95808.06;5080683;28;20956;-71
2021/01/09 08:59:04;;;;;;;7.10;5.27;;;;;;;-2.26;76.58;95806.72;5079932;28;20506;-71
2021/01/09 09:01:34;;;;;;;7.73;6.70;;;;;;;-2.19;76.35;95812.31;5082852;28;20992;-71
2021/01/09 09:04:06;;;;;;;7.33;6.63;;;;;;;-2.14;76.06;95816.25;5081780;28;20568;-71
2021/01/09 09:06:37;;;;;;;9.93;6.53;;;;;;;-2.08;75.26;95815.84;5074734;28;20803;-71
2021/01/09 09:09:05;;;;;;;6.20;5.60;;;;;;;-1.95;76.38;95809.81;5083298;28;20456;-71
2021/01/09 09:11:32;;;;;;;6.03;5.53;;;;;;;-1.95;75.33;95809.81;5080595;28;20463;-71
2021/01/09 09:14:04;;;;;;;6.47;5.83;;;;;;;-1.94;75.34;95821.81;5062067;28;21000;-71
2021/01/09 09:16:33;;;;;;;5.67;5.17;;;;;;;-1.89;74.99;95824.94;5066217;28;20471;-71
2021/01/09 09:19:10;;;;;;;9.10;6.53;;;;;;;-1.88;75.06;95824.00;5082068;28;20555;-71
2021/01/09 09:21:41;;;;;;;8.03;5.80;;;;;;;-1.79;74.18;95823.38;5077484;28;20536;-71
2021/01/09 09:24:09;;;;;;;9.23;7.00;;;;;;;-1.77;74.60;95829.28;5084302;28;20456;-71
2021/01/09 09:26:37;;;;;;;7.57;6.70;;;;;;;-1.72;74.71;95824.63;5082259;28;20483;-71
2021/01/09 09:29:05;;;;;;;6.90;5.97;;;;;;;-1.68;74.92;95822.63;5081953;28;20914;-71
2021/01/09 09:31:33;;;;;;;9.57;8.13;;;;;;;-1.87;75.09;95833.41;5073149;28;20501;-71
2021/01/09 09:34:06;;;;;;;6.43;5.83;;;;;;;-1.82;75.36;95836.53;5078163;28;21073;-71
2021/01/09 09:36:37;;;;;;;7.93;6.70;;;;;;;-1.74;75.01;95834.22;5066937;28;20480;-71
2021/01/09 09:39:15;;;;;;;9.80;7.13;;;;;;;-1.68;74.52;95838.16;5067521;28;20534;-71
2021/01/09 09:41:53;;;;;;;6.83;6.23;;;;;;;-1.59;75.40;95828.00;5066185;28;20451;-72
2021/01/09 09:44:22;;;;;;;6.83;6.07;;;;;;;-1.42;74.94;95834.59;5071240;28;20520;-71
2021/01/09 09:46:51;;;;;;;6.87;6.30;;;;;;;-1.26;74.21;95830.03;5086453;28;20536;-71
2021/01/09 09:49:18;;;;;;;7.77;6.77;;;;;;;-1.14;72.67;95828.31;5068681;28;20981;-72
2021/01/09 09:51:46;;;;;;;9.30;6.10;;;;;;;-1.04;71.63;95823.31;5084141;28;20484;-72
2021/01/09 09:54:13;;;;;;;6.00;5.50;;;;;;;-1.04;72.15;95821.56;5068187;28;20468;-71
2021/01/09 09:56:41;;;;;;;5.47;4.97;;;;;;;-0.93;72.41;95820.78;5086552;28;20984;-72
2021/01/09 09:59:10;;;;;;;5.90;5.40;;;;;;;-0.68;73.10;95815.50;5075026;28;20475;-72
2021/01/09 10:01:37;;;;;;;9.70;7.30;;;;;;;-0.48;71.95;95819.22;5068163;28;20476;-72
2021/01/09 10:04:11;;;;;;;7.20;6.47;;;;;;;-0.38;70.88;95817.59;5079325;28;20460;-71
2021/01/09 10:06:39;;;;;;;6.67;6.00;;;;;;;-0.13;70.50;95808.00;5079785;28;20475;-72
2021/01/09 10:09:14;;;;;;;7.47;6.00;;;;;;;0.12;69.80;95810.41;5076498;28;20465;-72
2021/01/09 10:11:42;;;;;;;11.50;7.27;;;;;;;0.25;69.78;95807.69;5070048;28;21105;-72
2021/01/09 10:14:24;;;;;;;7.43;6.50;;;;;;;0.28;68.81;95810.91;5081143;28;20499;-72
2021/01/09 10:16:51;;;;;;;6.70;6.03;;;;;;;0.42;68.03;95812.44;5078748;28;22125;-72
2021/01/09 10:19:18;;;;;;;8.63;6.30;;;;;;;0.51;68.41;95810.88;5077650;28;21015;-72
2021/01/09 10:21:46;;;;;;;8.13;7.40;;;;;;;0.51;68.88;95810.88;5075707;28;20468;-72
2021/01/09 10:24:14;;;;;;;11.50;7.67;;;;;;;0.45;70.35;95800.97;5077868;28;20472;-72
2021/01/09 10:26:41;;;;;;;6.97;6.37;;;;;;;0.53;70.09;95809.81;5077091;28;20247;-72
2021/01/09 10:29:14;;;;;;;11.43;8.00;;;;;;;0.67;70.65;95803.56;5064089;28;20239;-72
2021/01/09 10:31:41;;;;;;;10.63;7.70;;;;;;;0.77;69.79;95801.91;5074747;28;20275;-72
2021/01/09 10:34:09;;;;;;;8.77;8.00;;;;;;;0.83;68.27;95803.19;5073158;28;20266;-72
2021/01/09 10:36:38;;;;;;;9.83;8.93;;;;;;;0.89;68.63;95801.88;5081736;28;20901;-72
2021/01/09 10:39:06;;;;;;;7.93;7.30;;;;;;;0.89;68.41;95796.69;5057185;28;20221;-72
2021/01/09 10:41:34;;;;;;;8.77;7.80;;;;;;;0.96;69.60;95792.66;5075704;28;20229;-72
2021/01/09 10:44:21;;;;;;;9.90;8.20;;;;;;;1.25;69.62;95785.94;5052340;28;20226;-72
2021/01/09 10:46:48;;;;;;;8.80;7.57;;;;;;;1.42;69.49;95788.00;5074960;28;20718;-72
2021/01/09 10:49:35;;;;;;;8.17;7.37;;;;;;;1.66;70.01;95790.38;5081425;28;20229;-73
2021/01/09 10:52:02;;;;;;;7.47;6.80;;;;;;;1.84;68.43;95785.44;5059451;28;20286;-72
2021/01/09 10:54:29;;;;;;;12.33;7.83;;;;;;;2.02;68.33;95782.28;5077285;28;20221;-72
2021/01/09 10:56:56;;;;;;;8.97;7.70;;;;;;;2.17;67.82;95787.00;5058079;28;20278;-72
2021/01/09 10:59:24;;;;;;;7.53;6.93;;;;;;;2.36;67.79;95788.88;5079220;28;20313;-73
2021/01/09 11:01:51;;;;;;;8.60;7.83;;;;;;;2.61;66.86;95787.59;5079979;28;20222;-73
2021/01/09 11:04:18;;;;;;;9.73;8.80;;;;;;;2.85;64.76;95784.66;5074117;28;20229;-73
2021/01/09 11:06:45;;;;;;;7.30;6.70;;;;;;;3.02;63.98;95781.41;5082327;28;20214;-73
2021/01/09 11:09:12;;;;;;;10.53;9.73;;;;;;;3.12;63.00;95771.00;5072754;28;20225;-73
2021/01/09 11:11:39;;;;;;;20.50;10.33;;;;;;;3.21;63.44;95779.78;5072986;28;20287;-73
2021/01/09 11:14:06;;;;;;;11.17;10.07;;;;;;;3.64;63.14;95777.59;5078226;28;20280;-73
2021/01/09 11:16:33;;;;;;;11.27;10.07;;;;;;;4.62;61.44;95772.97;5064685;28;20710;-73
2021/01/09 11:19:00;;;;;;;10.63;9.60;;;;;;;5.14;59.89;95771.44;5066058;28;20246;-73
2021/01/09 11:21:27;;;;;;;9.77;8.77;;;;;;;5.43;58.75;95764.22;5079042;28;20222;-72
2021/01/09 11:23:54;;;;;;;11.80;10.67;;;;;;;6.22;56.43;95766.00;5083010;28;20634;-73
2021/01/09 11:26:22;;;;;;;11.10;8.83;;;;;;;8.01;54.00;95752.53;5064987;28;20214;-73
2021/01/09 11:28:49;;;;;;;12.07;10.83;;;;;;;10.29;47.22;95748.78;5064974;28;20248;-73
2021/01/09 11:31:17;;;;;;;10.73;9.73;;;;;;;12.63;42.58;95734.25;5081540;28;20265;-73
2021/01/09 11:33:44;;;;;;;10.27;9.27;;;;;;;14.36;37.69;95730.25;5082406;28;20226;-73